Terminal Aerodrome Forecast
Issued by NWS Indianapolis, IN

Home | Current Version | Previous Version | Text Only | Print | Product List | Glossary On
Versions: 1 2 3 4 5 6 7 8 9 10 11 12 13 14 15 16 17 18 19 20 21 22 23 24 25 26 27 28
000
FTUS43 KIND 291500 AAB
TAFIND
TAF AMD
KIND 291512Z 2915/3018 24020G30KT P6SM OVC025
     FM291700 27020G30KT P6SM OVC015
     FM292100 30015G25KT P6SM OVC015
     FM300600 31015G25KT P6SM OVC020=

USA.gov is the U.S. government's official web portal to all federal, state and local government web resources and services.